Nicole Leigh Reinauer — WCZ5696 — position and weather

sailwx.info

Track history (hours):
 
Tides and Currents Weather Stations Pressure Air Temp Water Temp Dewpoint Dewpoint Depression Visibility Wind Speed Wind Dir Waves Ship Positions

Nicole Leigh Reinauer

Owner: H A REINAUER INC, STATEN ISLAND, NY. More information available from US FCC via Universal Licensing System and Coast Guard Vessel Documentation Center.

Last reported at 2015-May-27 17:28 UTC. Time now 2015-May-27 18:03 UTC.
Position N 26°06' W 080°07'.

Length 167 m; draft 8 m.

Type: Wing in ground effect craft. MMSI: 366774330.

Date/timePositionNaut miles runAvg speedWind from/ knotsBaromVisibWave heightAir tempDewpointWater temp
2015-May-27 17:28N 26°06' W 080°07'0 0.0
2015-May-27 16:31N 26°06' W 080°07'0 0.0
2015-May-27 15:28N 26°06' W 080°07'2 2.1
2015-May-27 14:33N 26°06' W 080°05'5 4.9
2015-May-27 13:33N 26°10' W 080°02'2 1.5
2015-May-27 12:33N 26°10' W 080°03'6 6.1
2015-May-27 11:33N 26°16' W 080°03'1110.8
2015-May-27 10:33N 26°27' W 080°01'1110.5
2015-May-27 09:33N 26°38' W 080°01'10 9.9
2015-May-27 08:33N 26°48' W 080°00'1010.0
2015-May-27 07:33N 26°57' W 080°03'1010.4
2015-May-27 06:33N 27°07' W 080°05'28810.2
2015-May-26 02:28N 31°54' W 080°38'  
2015-May-22 21:33N 39°35' W 074°06'1211.8
2015-May-22 20:33N 39°45' W 073°59'1211.9
2015-May-22 19:33N 39°57' W 073°57'2611.9
2015-May-22 17:22N 40°23' W 073°55'8 9.4
2015-May-22 16:33N 40°29' W 074°01'11 8.1
2015-May-22 15:11N 40°33' W 074°15'3 5.2
2015-May-22 14:33N 40°35' W 074°12'0 0.0
2015-May-22 13:16N 40°35' W 074°12'0 0.0
2015-May-22 12:27N 40°35' W 074°12'0 0.0
2015-May-22 11:33N 40°35' W 074°12'0 0.0
2015-May-22 10:33N 40°35' W 074°12'0 0.0
2015-May-22 09:33N 40°35' W 074°12'0 0.0
2015-May-22 08:32N 40°35' W 074°12'0 0.0
2015-May-22 07:33N 40°35' W 074°12'0 0.0
2015-May-22 06:26N 40°35' W 074°12'0 0.0
2015-May-22 03:29N 40°35' W 074°12'0 0.0
2015-May-22 02:31N 40°35' W 074°12'6 5.9
2015-May-22 01:34N 40°39' W 074°07'0 0.1
2015-May-22 00:33N 40°39' W 074°07'0 0.0
2015-May-21 23:33N 40°39' W 074°07'0 0.0
2015-May-21 22:33N 40°39' W 074°07'0 0.0
2015-May-21 21:33N 40°39' W 074°07'0 0.0
2015-May-21 20:33N 40°39' W 074°07'1 1.0
2015-May-21 19:33N 40°38' W 074°08'0 0.0
2015-May-21 18:33N 40°38' W 074°08'0 0.0
2015-May-21 17:33N 40°38' W 074°08'0 0.0
2015-May-21 16:33N 40°38' W 074°08'0 0.0
2015-May-21 15:33N 40°38' W 074°08'0 0.0
2015-May-21 14:33N 40°38' W 074°08'0 0.0
2015-May-21 13:33N 40°38' W 074°08'2 1.7
2015-May-21 12:33N 40°39' W 074°10'0 0.0
2015-May-21 11:33N 40°39' W 074°10'4 3.7
2015-May-21 10:33N 40°35' W 074°12'0 0.0
2015-May-21 09:33N 40°35' W 074°12'0 0.0
2015-May-21 08:33N 40°35' W 074°12'0 0.0
2015-May-21 07:33N 40°35' W 074°12'0 0.0
2015-May-21 06:33N 40°35' W 074°12'0 0.0
2015-May-21 05:33N 40°35' W 074°12'0 0.0
2015-May-21 04:33N 40°35' W 074°12'1 1.1
2015-May-21 03:33N 40°36' W 074°12'7 6.6
2015-May-21 02:33N 40°39' W 074°04'8 7.5
2015-May-21 01:33N 40°32' W 074°01'7 6.8
2015-May-21 00:33N 40°28' W 073°54'1010.1
2015-May-20 23:33N 40°18' W 073°55'2210.9
2015-May-20 21:33N 39°56' W 073°57'1111.1
2015-May-20 20:32N 39°45' W 073°59'1111.1
2015-May-20 19:33N 39°35' W 074°05'1111.1
2015-May-20 18:31N 39°25' W 074°13'8811.0
2015-May-20 10:33N 37°59' W 074°34'20411.3
2015-May-19 16:33N 34°43' W 075°44'1311.9
2015-May-19 15:26N 34°32' W 075°55'7011.8
2015-May-19 09:33N 33°39' W 076°49'1412.0
2015-May-19 08:24N 33°29' W 077°00'1612.3
2015-May-19 07:05N 33°17' W 077°13'712.3
2015-May-19 06:33N 33°12' W 077°18'  
Track history (hours):
 
Tides and Currents Weather Stations Pressure Air Temp Water Temp Dewpoint Dewpoint Depression Visibility Wind Speed Wind Dir Waves Ship Positions

Nicole Leigh Reinauer

Owner: H A REINAUER INC, STATEN ISLAND, NY. More information available from US FCC via Universal Licensing System and Coast Guard Vessel Documentation Center.

Last reported at 2015-May-27 17:28 UTC. Time now 2015-May-27 18:03 UTC.
Position N 26°06' W 080°07'.

Length 167 m; draft 8 m.

Type: Wing in ground effect craft. MMSI: 366774330.

Date/timePositionNaut miles runAvg speedWind from/ knotsBaromVisibWave heightAir tempDewpointWater temp
2015-May-27 17:28N 26°06' W 080°07'0 0.0
2015-May-27 16:31N 26°06' W 080°07'0 0.0
2015-May-27 15:28N 26°06' W 080°07'2 2.1
2015-May-27 14:33N 26°06' W 080°05'5 4.9
2015-May-27 13:33N 26°10' W 080°02'2 1.5
2015-May-27 12:33N 26°10' W 080°03'6 6.1
2015-May-27 11:33N 26°16' W 080°03'1110.8
2015-May-27 10:33N 26°27' W 080°01'1110.5
2015-May-27 09:33N 26°38' W 080°01'10 9.9
2015-May-27 08:33N 26°48' W 080°00'1010.0
2015-May-27 07:33N 26°57' W 080°03'1010.4
2015-May-27 06:33N 27°07' W 080°05'28810.2
2015-May-26 02:28N 31°54' W 080°38'  
2015-May-22 21:33N 39°35' W 074°06'1211.8
2015-May-22 20:33N 39°45' W 073°59'1211.9
2015-May-22 19:33N 39°57' W 073°57'2611.9
2015-May-22 17:22N 40°23' W 073°55'8 9.4
2015-May-22 16:33N 40°29' W 074°01'11 8.1
2015-May-22 15:11N 40°33' W 074°15'3 5.2
2015-May-22 14:33N 40°35' W 074°12'0 0.0
2015-May-22 13:16N 40°35' W 074°12'0 0.0
2015-May-22 12:27N 40°35' W 074°12'0 0.0
2015-May-22 11:33N 40°35' W 074°12'0 0.0
2015-May-22 10:33N 40°35' W 074°12'0 0.0
2015-May-22 09:33N 40°35' W 074°12'0 0.0
2015-May-22 08:32N 40°35' W 074°12'0 0.0
2015-May-22 07:33N 40°35' W 074°12'0 0.0
2015-May-22 06:26N 40°35' W 074°12'0 0.0
2015-May-22 03:29N 40°35' W 074°12'0 0.0
2015-May-22 02:31N 40°35' W 074°12'6 5.9
2015-May-22 01:34N 40°39' W 074°07'0 0.1
2015-May-22 00:33N 40°39' W 074°07'0 0.0
2015-May-21 23:33N 40°39' W 074°07'0 0.0
2015-May-21 22:33N 40°39' W 074°07'0 0.0
2015-May-21 21:33N 40°39' W 074°07'0 0.0
2015-May-21 20:33N 40°39' W 074°07'1 1.0
2015-May-21 19:33N 40°38' W 074°08'0 0.0
2015-May-21 18:33N 40°38' W 074°08'0 0.0
2015-May-21 17:33N 40°38' W 074°08'0 0.0
2015-May-21 16:33N 40°38' W 074°08'0 0.0
2015-May-21 15:33N 40°38' W 074°08'0 0.0
2015-May-21 14:33N 40°38' W 074°08'0 0.0
2015-May-21 13:33N 40°38' W 074°08'2 1.7
2015-May-21 12:33N 40°39' W 074°10'0 0.0
2015-May-21 11:33N 40°39' W 074°10'4 3.7
2015-May-21 10:33N 40°35' W 074°12'0 0.0
2015-May-21 09:33N 40°35' W 074°12'0 0.0
2015-May-21 08:33N 40°35' W 074°12'0 0.0
2015-May-21 07:33N 40°35' W 074°12'0 0.0
2015-May-21 06:33N 40°35' W 074°12'0 0.0
2015-May-21 05:33N 40°35' W 074°12'0 0.0
2015-May-21 04:33N 40°35' W 074°12'1 1.1
2015-May-21 03:33N 40°36' W 074°12'7 6.6
2015-May-21 02:33N 40°39' W 074°04'8 7.5
2015-May-21 01:33N 40°32' W 074°01'7 6.8
2015-May-21 00:33N 40°28' W 073°54'1010.1
2015-May-20 23:33N 40°18' W 073°55'2210.9
2015-May-20 21:33N 39°56' W 073°57'1111.1
2015-May-20 20:32N 39°45' W 073°59'1111.1
2015-May-20 19:33N 39°35' W 074°05'1111.1
2015-May-20 18:31N 39°25' W 074°13'8811.0
2015-May-20 10:33N 37°59' W 074°34'20411.3
2015-May-19 16:33N 34°43' W 075°44'1311.9
2015-May-19 15:26N 34°32' W 075°55'7011.8
2015-May-19 09:33N 33°39' W 076°49'1412.0
2015-May-19 08:24N 33°29' W 077°00'1612.3
2015-May-19 07:05N 33°17' W 077°13'712.3
2015-May-19 06:33N 33°12' W 077°18'  

Dump ship's entire track history